createdAt,value
2019-05-05T00:01:50.596Z,101747.75
2019-05-05T00:04:39.856Z,101750.92
2019-05-05T00:07:06.892Z,101752.80
2019-05-05T00:09:34.776Z,101751.00
2019-05-05T00:12:28.492Z,101744.97
2019-05-05T00:15:18.934Z,101752.83
2019-05-05T00:17:45.881Z,101756.11
2019-05-05T00:20:14.474Z,101752.28
2019-05-05T00:22:41.598Z,101761.66
2019-05-05T00:25:08.767Z,101752.52
2019-05-05T00:27:35.827Z,101755.02
2019-05-05T00:30:05.280Z,101753.31
2019-05-05T00:32:34.877Z,101753.14
2019-05-05T00:35:04.229Z,101759.85
2019-05-05T00:37:30.932Z,101757.55
2019-05-05T00:39:57.992Z,101761.08
2019-05-05T00:42:25.019Z,101767.28
2019-05-05T00:44:51.961Z,101767.62
2019-05-05T00:47:45.541Z,101771.84
2019-05-05T00:50:16.271Z,101769.75
2019-05-05T00:52:44.523Z,101766.25
2019-05-05T00:55:11.931Z,101776.30
2019-05-05T00:57:39.004Z,101774.50
2019-05-05T01:00:15.202Z,101773.71
2019-05-05T01:02:45.671Z,101777.09
2019-05-05T01:05:27.424Z,101778.69
2019-05-05T01:07:56.175Z,101773.95
2019-05-05T01:10:24.815Z,101776.48
2019-05-05T01:12:51.959Z,101768.41
2019-05-05T01:15:19.311Z,101774.28
2019-05-05T01:17:46.311Z,101772.19
2019-05-05T01:20:14.682Z,101770.43
2019-05-05T01:22:41.760Z,101780.14
2019-05-05T01:25:09.006Z,101779.84
2019-05-05T01:27:35.988Z,101782.95
2019-05-05T01:30:04.869Z,101777.76
2019-05-05T01:32:36.183Z,101788.53
2019-05-05T01:35:05.387Z,101783.02
2019-05-05T01:37:38.108Z,101788.21
2019-05-05T01:40:25.708Z,101786.52
2019-05-05T01:42:54.751Z,101786.41
2019-05-05T01:45:21.819Z,101784.89
2019-05-05T01:47:49.277Z,101791.50
2019-05-05T01:50:20.995Z,101787.45
2019-05-05T01:52:45.211Z,101795.13
2019-05-05T01:55:14.529Z,101785.94
2019-05-05T01:57:41.493Z,101791.02
2019-05-05T02:00:08.833Z,101793.50
2019-05-05T02:02:36.139Z,101793.50
2019-05-05T02:05:04.593Z,101792.37
2019-05-05T02:07:31.779Z,101799.75
2019-05-05T02:09:58.750Z,101793.94
2019-05-05T02:12:25.866Z,101791.45
2019-05-05T02:14:54.949Z,101792.64
2019-05-05T02:17:21.748Z,101792.02
2019-05-05T02:19:48.720Z,101794.06
2019-05-05T02:22:15.725Z,101796.71
2019-05-05T02:24:44.408Z,101794.69
2019-05-05T02:27:11.675Z,101801.73
2019-05-05T02:29:49.980Z,101795.53
2019-05-05T02:32:36.136Z,101800.49
2019-05-05T02:35:06.687Z,101798.85
2019-05-05T02:37:35.711Z,101802.63
2019-05-05T02:40:07.243Z,101799.20
2019-05-05T02:42:32.069Z,101797.56
2019-05-05T02:45:05.385Z,101795.25
2019-05-05T02:47:55.199Z,101801.62
2019-05-05T02:50:25.132Z,101802.52
2019-05-05T02:52:53.851Z,101797.73
2019-05-05T02:55:23.481Z,101801.28
2019-05-05T02:57:50.813Z,101802.69
2019-05-05T03:00:45.383Z,101798.41
2019-05-05T03:03:14.699Z,101804.72
2019-05-05T03:05:43.450Z,101798.97
2019-05-05T03:11:44.433Z,101799.81
2019-05-05T03:14:14.311Z,101805.17
2019-05-05T03:16:43.525Z,101807.66
2019-05-05T03:19:10.850Z,101804.66
2019-05-05T03:21:38.516Z,101807.54
2019-05-05T03:24:11.911Z,101815.10
2019-05-05T03:26:39.703Z,101821.47
2019-05-05T03:29:13.733Z,101818.09
2019-05-05T03:31:40.605Z,101816.00
2019-05-05T03:34:08.281Z,101814.14
2019-05-05T03:36:35.375Z,101815.09
2019-05-05T03:39:05.190Z,101816.10
2019-05-05T03:41:45.239Z,101821.30
2019-05-05T03:44:24.904Z,101820.44
2019-05-05T03:46:54.380Z,101818.29
2019-05-05T03:49:21.836Z,101817.43
2019-05-05T03:51:48.844Z,101818.66
2019-05-05T03:54:15.913Z,101807.98
2019-05-05T03:56:44.180Z,101813.97
2019-05-05T03:59:11.282Z,101820.58
2019-05-05T04:01:45.188Z,101825.02
2019-05-05T04:04:28.164Z,101829.06
2019-05-05T04:06:55.195Z,101831.23
2019-05-05T04:09:24.245Z,101830.55
2019-05-05T04:11:51.404Z,101824.48
2019-05-05T04:14:18.709Z,101827.52
2019-05-05T04:17:05.378Z,101828.73
2019-05-05T04:19:35.095Z,101829.17
2019-05-05T04:22:04.102Z,101834.80
2019-05-05T04:24:31.018Z,101833.02
2019-05-05T04:26:58.147Z,101832.33
2019-05-05T04:29:25.103Z,101839.76
2019-05-05T04:31:53.984Z,101839.38
2019-05-05T04:34:20.964Z,101843.20
2019-05-05T04:36:47.931Z,101839.22
2019-05-05T04:39:14.883Z,101837.73
2019-05-05T04:41:43.919Z,101838.05
2019-05-05T04:44:11.042Z,101844.46
2019-05-05T04:46:37.984Z,101850.48
2019-05-05T04:49:17.895Z,101854.80
2019-05-05T04:51:50.030Z,101860.02
2019-05-05T04:54:29.683Z,101862.73
2019-05-05T04:56:56.666Z,101861.34
2019-05-05T04:59:23.741Z,101868.57
2019-05-05T05:01:54.711Z,101870.42
2019-05-05T05:04:50.432Z,101863.72
2019-05-05T05:07:18.199Z,101865.83
2019-05-05T05:09:45.174Z,101865.23
2019-05-05T05:12:14.505Z,101864.83
2019-05-05T05:14:41.203Z,101870.53
2019-05-05T05:17:14.119Z,101863.42
2019-05-05T05:19:41.291Z,101870.33
2019-05-05T05:22:08.263Z,101872.64
2019-05-05T05:24:35.224Z,101871.03
2019-05-05T05:27:02.198Z,101885.36
2019-05-05T05:29:29.156Z,101884.55
2019-05-05T05:31:56.116Z,101889.55
2019-05-05T05:34:23.913Z,101895.55
2019-05-05T05:36:51.073Z,101895.93
2019-05-05T05:39:35.220Z,101893.21
2019-05-05T05:43:04.681Z,101897.11
2019-05-05T05:46:09.351Z,101902.80
2019-05-05T05:48:49.416Z,101910.02
2019-05-05T05:51:19.431Z,101911.63
2019-05-05T05:53:46.557Z,101918.13
2019-05-05T05:56:13.635Z,101924.63
2019-05-05T05:58:40.745Z,101927.75
2019-05-05T06:01:07.796Z,101934.06
2019-05-05T06:03:34.866Z,101937.58
2019-05-05T06:06:01.872Z,101941.67
2019-05-05T06:08:30.038Z,101939.35
2019-05-05T06:10:57.154Z,101943.74
2019-05-05T06:13:24.338Z,101949.24
2019-05-05T06:15:53.420Z,101947.41
2019-05-05T06:18:20.355Z,101951.80
2019-05-05T06:20:59.425Z,101959.38
2019-05-05T06:23:26.575Z,101959.69
2019-05-05T06:25:55.084Z,101955.37
2019-05-05T06:28:23.705Z,101957.58
2019-05-05T06:30:51.032Z,101967.28
2019-05-05T06:33:18.042Z,101956.35
2019-05-05T06:35:45.026Z,101959.56
2019-05-05T06:38:13.664Z,101957.94
2019-05-05T06:41:06.586Z,101955.31
2019-05-05T06:43:59.093Z,101955.61
2019-05-05T06:46:29.058Z,101966.37
2019-05-05T06:49:34.649Z,101954.11
2019-05-05T06:52:03.860Z,101961.47
2019-05-05T06:54:30.727Z,101946.57
2019-05-05T06:56:57.779Z,101956.89
2019-05-05T06:59:24.825Z,101964.91
2019-05-05T07:01:53.576Z,101956.50
2019-05-05T07:04:20.702Z,101961.16
2019-05-05T07:06:54.011Z,101969.16
2019-05-05T07:09:16.727Z,101973.31
2019-05-05T07:11:43.808Z,101965.66
2019-05-05T07:14:10.779Z,101960.09
2019-05-05T07:16:37.792Z,101965.64
2019-05-05T07:19:04.793Z,101964.15
2019-05-05T07:21:34.142Z,101970.62
2019-05-05T07:24:00.739Z,101970.52
2019-05-05T07:26:27.717Z,101968.92
2019-05-05T07:28:54.729Z,101969.93
2019-05-05T07:31:23.680Z,101974.23
2019-05-05T07:33:50.574Z,101964.03
2019-05-05T07:36:51.216Z,101962.50
2019-05-05T07:39:18.159Z,101969.09
2019-05-05T07:41:45.334Z,101965.98
2019-05-05T07:44:25.060Z,101968.00
2019-05-05T07:46:41.209Z,101974.64
2019-05-05T07:49:08.284Z,101961.09
2019-05-05T07:51:35.274Z,101962.55
2019-05-05T07:54:03.925Z,101959.70
2019-05-05T07:56:31.060Z,101965.08
2019-05-05T07:58:58.048Z,101960.40
2019-05-05T08:01:25.035Z,101966.36
2019-05-05T08:03:53.853Z,101970.86
2019-05-05T08:06:20.904Z,101976.39
2019-05-05T08:08:47.971Z,101971.05
2019-05-05T08:11:14.975Z,101971.39
2019-05-05T08:13:44.137Z,101972.14
2019-05-05T08:16:24.145Z,101973.38
2019-05-05T08:19:07.180Z,101977.73
2019-05-05T08:21:34.727Z,101983.07
2019-05-05T08:24:14.081Z,101987.68
2019-05-05T08:27:00.787Z,101989.66
2019-05-05T08:29:34.705Z,101981.18
2019-05-05T08:32:20.367Z,101976.55
2019-05-05T08:34:57.278Z,101972.89
2019-05-05T08:37:16.184Z,101976.69
2019-05-05T08:39:44.702Z,101976.00
2019-05-05T08:42:11.821Z,101974.89
2019-05-05T08:44:38.790Z,101975.86
2019-05-05T08:47:07.610Z,101980.42
2019-05-05T08:49:34.845Z,101982.64
2019-05-05T08:52:03.940Z,101977.45
2019-05-05T08:54:30.805Z,101984.65
2019-05-05T08:56:57.768Z,101981.46
2019-05-05T08:59:24.734Z,101976.83
2019-05-05T09:01:54.105Z,101973.45
2019-05-05T09:04:21.331Z,101968.40
2019-05-05T09:06:48.701Z,101976.21
2019-05-05T09:09:16.870Z,101971.58
2019-05-05T09:11:44.027Z,101967.16
2019-05-05T09:14:11.052Z,101974.67
2019-05-05T09:16:38.059Z,101973.50
2019-05-05T09:19:11.953Z,101979.53
2019-05-05T09:21:38.977Z,101979.67
2019-05-05T09:24:30.410Z,101969.16
2019-05-05T09:27:03.645Z,101979.59
2019-05-05T09:29:34.698Z,101976.97
2019-05-05T09:32:04.079Z,101976.83
2019-05-05T09:34:31.545Z,101975.09
2019-05-05T09:36:58.634Z,101985.75
2019-05-05T09:39:25.579Z,101987.76
2019-05-05T09:41:53.607Z,102013.09
2019-05-05T09:44:20.761Z,102007.57
2019-05-05T09:46:48.816Z,102014.17
2019-05-05T09:49:15.763Z,102014.84
2019-05-05T09:51:43.962Z,102015.63
2019-05-05T09:54:14.487Z,102018.48
2019-05-05T09:56:40.048Z,102019.16
2019-05-05T09:59:07.042Z,102019.17
2019-05-05T10:01:34.017Z,102018.97
2019-05-05T10:04:07.784Z,102020.11
2019-05-05T10:06:35.330Z,102017.65
2019-05-05T10:09:02.291Z,102017.64
2019-05-05T10:11:29.242Z,102026.16
2019-05-05T10:13:56.227Z,102019.16
2019-05-05T10:16:23.580Z,102021.21
2019-05-05T10:18:50.644Z,102018.20
2019-05-05T10:21:17.942Z,102020.77
2019-05-05T10:23:47.176Z,102022.05
2019-05-05T10:26:14.937Z,102011.36
2019-05-05T10:28:44.347Z,102014.62
2019-05-05T10:31:11.067Z,102001.90
2019-05-05T10:33:41.928Z,102007.55
2019-05-05T10:36:08.922Z,102005.26
2019-05-05T10:38:37.803Z,102002.84
2019-05-05T10:41:04.776Z,102001.25
2019-05-05T10:43:31.791Z,102003.30
2019-05-05T10:45:58.781Z,102002.13
2019-05-05T10:48:26.878Z,102003.99
2019-05-05T10:50:53.930Z,101998.60
2019-05-05T10:53:20.877Z,102000.89
2019-05-05T10:55:47.925Z,101998.70
2019-05-05T10:58:14.937Z,102002.83
2019-05-05T11:00:47.776Z,101998.56
2019-05-05T11:03:15.343Z,102007.17
2019-05-05T11:05:44.873Z,102010.06
2019-05-05T11:08:13.672Z,102011.41
2019-05-05T11:10:40.808Z,102013.78
2019-05-05T11:13:07.863Z,102013.08
2019-05-05T11:15:34.873Z,102006.23
2019-05-05T11:18:03.994Z,102005.33
2019-05-05T11:20:31.117Z,101995.21
2019-05-05T11:22:59.730Z,102003.63
2019-05-05T11:25:26.725Z,102000.61
2019-05-05T11:27:55.302Z,101997.56
2019-05-05T11:30:33.995Z,101988.14
2019-05-05T11:33:34.458Z,101994.30
2019-05-05T11:36:30.376Z,102003.34
2019-05-05T11:38:57.346Z,102008.45
2019-05-05T11:41:24.561Z,102058.34
2019-05-05T11:43:53.338Z,102050.12
2019-05-05T11:46:20.392Z,102053.05
2019-05-05T11:48:47.405Z,102048.97
2019-05-05T11:51:15.135Z,102037.92
2019-05-05T11:53:44.522Z,102035.66
2019-05-05T11:56:11.163Z,102034.27
2019-05-05T11:58:38.123Z,102032.39
2019-05-05T12:01:06.865Z,102030.64
2019-05-05T12:03:34.157Z,102032.30
2019-05-05T12:06:01.253Z,102029.50
2019-05-05T12:08:28.216Z,102024.98
2019-05-05T12:10:59.378Z,102021.31
2019-05-05T12:13:26.357Z,102011.02
2019-05-05T12:15:58.661Z,102008.63
2019-05-05T12:18:25.682Z,102010.52
2019-05-05T12:20:54.373Z,102005.41
2019-05-05T12:23:23.953Z,102003.84
2019-05-05T12:26:09.245Z,102009.94
2019-05-05T12:28:41.132Z,102015.90
2019-05-05T12:31:14.156Z,102024.36
2019-05-05T12:33:41.240Z,102031.56
2019-05-05T12:36:08.538Z,102020.66
2019-05-05T12:38:35.596Z,102026.68
2019-05-05T12:41:04.348Z,102023.35
2019-05-05T12:43:33.867Z,102019.34
2019-05-05T12:46:08.310Z,102021.40
2019-05-05T12:48:35.807Z,102022.20
2019-05-05T12:51:04.179Z,102017.00
2019-05-05T12:53:31.314Z,102019.55
2019-05-05T12:55:58.271Z,102014.78
2019-05-05T12:58:25.258Z,102010.18
2019-05-05T13:01:03.802Z,102008.20
2019-05-05T13:03:31.131Z,102018.78
2019-05-05T13:05:58.189Z,102022.77
2019-05-05T13:08:25.156Z,102028.36
2019-05-05T13:10:53.441Z,102033.41
2019-05-05T13:13:20.484Z,102040.53
2019-05-05T13:15:47.506Z,102041.72
2019-05-05T13:18:14.531Z,102046.79
2019-05-05T13:20:58.112Z,102040.54
2019-05-05T13:23:44.727Z,102041.22
2019-05-05T13:26:34.168Z,102036.05
2019-05-05T13:29:01.130Z,102033.84
2019-05-05T13:31:28.103Z,102037.72
2019-05-05T13:33:55.128Z,102032.85
2019-05-05T13:36:24.128Z,102022.65
2019-05-05T13:38:52.101Z,102017.40
2019-05-05T13:41:20.006Z,102012.64
2019-05-05T13:43:47.002Z,102011.42
2019-05-05T13:46:20.392Z,101996.36
2019-05-05T13:48:47.421Z,101998.48
2019-05-05T13:51:14.894Z,101997.06
2019-05-05T13:53:41.984Z,101992.82
2019-05-05T13:56:12.322Z,101988.56
2019-05-05T13:58:37.971Z,101991.50
2019-05-05T14:01:06.027Z,102002.31
2019-05-05T14:03:40.393Z,102000.61
2019-05-05T14:06:07.345Z,101994.61
2019-05-05T14:08:36.326Z,101994.61
2019-05-05T14:11:03.747Z,101988.81
2019-05-05T14:13:34.164Z,101994.91
2019-05-05T14:16:01.251Z,101994.14
2019-05-05T14:18:28.269Z,102000.12
2019-05-05T14:20:55.873Z,101986.55
2019-05-05T14:23:24.016Z,101995.63
2019-05-05T14:25:51.248Z,101987.06
2019-05-05T14:28:18.378Z,101988.02
2019-05-05T14:31:14.284Z,101987.12
2019-05-05T14:33:49.713Z,102000.36
2019-05-05T14:36:44.136Z,102018.01
2019-05-05T14:39:12.137Z,102022.48
2019-05-05T14:41:39.122Z,102039.30
2019-05-05T14:44:06.075Z,102044.53
2019-05-05T14:46:34.220Z,102056.05
2019-05-05T14:49:05.585Z,102058.20
2019-05-05T14:51:34.010Z,102050.06
2019-05-05T14:57:33.595Z,102052.39
2019-05-05T15:00:00.780Z,102054.98
2019-05-05T15:02:37.009Z,102059.91
2019-05-05T15:05:24.470Z,102055.16
2019-05-05T15:08:04.657Z,102057.86
2019-05-05T15:10:50.629Z,102059.73
2019-05-05T15:13:17.958Z,102062.36
2019-05-05T15:15:45.138Z,102048.22
2019-05-05T15:18:12.115Z,102050.13
2019-05-05T15:20:39.264Z,102038.73
2019-05-05T15:23:06.237Z,102045.88
2019-05-05T15:25:34.133Z,102044.67
2019-05-05T15:28:01.437Z,102045.11
2019-05-05T15:30:28.387Z,102034.50
2019-05-05T15:32:58.630Z,102030.99
2019-05-05T15:36:04.360Z,102035.91
2019-05-05T15:38:31.481Z,102030.16
2019-05-05T15:40:58.544Z,102032.17
2019-05-05T15:43:28.471Z,102030.37
2019-05-05T15:45:55.445Z,102033.00
2019-05-05T15:48:22.509Z,102027.32
2019-05-05T15:50:50.731Z,102024.20
2019-05-05T15:53:17.695Z,102028.63
2019-05-05T15:55:44.717Z,102030.70
2019-05-05T15:58:14.005Z,102026.72
2019-05-05T16:00:44.206Z,102023.53
2019-05-05T16:03:13.448Z,102017.38
2019-05-05T16:05:40.102Z,102017.77
2019-05-05T16:08:07.279Z,102019.83
2019-05-05T16:10:34.801Z,102017.01
2019-05-05T16:13:01.882Z,102017.66
2019-05-05T16:15:51.025Z,102015.63
2019-05-05T16:18:26.364Z,102011.67
2019-05-05T16:21:04.681Z,102005.38
2019-05-05T16:23:36.058Z,102004.17
2019-05-05T16:26:04.840Z,102005.88
2019-05-05T16:28:50.062Z,102008.97
2019-05-05T16:31:17.276Z,102013.98
2019-05-05T16:33:44.278Z,102011.77
2019-05-05T16:36:11.365Z,102010.26
2019-05-05T16:38:38.609Z,102014.30
2019-05-05T16:41:05.601Z,102014.26
2019-05-05T16:43:33.743Z,102012.73
2019-05-05T16:46:01.610Z,102005.45
2019-05-05T16:48:28.579Z,102009.54
2019-05-05T16:50:55.577Z,102010.30
2019-05-05T16:53:35.566Z,102007.81
2019-05-05T16:56:04.488Z,102008.02
2019-05-05T16:58:33.443Z,102011.41
2019-05-05T17:01:00.412Z,102004.78
2019-05-05T17:03:27.481Z,102008.58
2019-05-05T17:05:55.610Z,102011.21
2019-05-05T17:08:24.451Z,102011.62
2019-05-05T17:10:51.685Z,102011.70
2019-05-05T17:13:33.502Z,102016.67
2019-05-05T17:16:14.875Z,102011.77
2019-05-05T17:18:56.736Z,102017.84
2019-05-05T17:21:28.788Z,102019.92
2019-05-05T17:23:55.784Z,102027.74
2019-05-05T17:26:24.327Z,102035.62
2019-05-05T17:28:51.391Z,102037.15
2019-05-05T17:31:18.452Z,102045.49
2019-05-05T17:33:45.696Z,102041.95
2019-05-05T17:36:14.938Z,102041.59
2019-05-05T17:38:43.759Z,102037.84
2019-05-05T17:41:28.739Z,102042.12
2019-05-05T17:44:05.185Z,102046.55
2019-05-05T17:46:53.950Z,102041.22
2019-05-05T17:49:51.637Z,102035.50
2019-05-05T17:52:27.596Z,102036.08
2019-05-05T17:54:56.899Z,102031.95
2019-05-05T17:57:28.107Z,102033.21
2019-05-05T17:59:55.287Z,102037.56
2019-05-05T18:02:23.668Z,102026.77
2019-05-05T18:04:50.920Z,102023.31
2019-05-05T18:07:26.234Z,102041.09
2019-05-05T18:10:28.237Z,102033.28
2019-05-05T18:13:35.052Z,102037.97
2019-05-05T18:16:04.575Z,102043.75
2019-05-05T18:18:31.714Z,102049.56
2019-05-05T18:21:04.388Z,102052.00
2019-05-05T18:23:31.610Z,102045.56
2019-05-05T18:25:58.570Z,102048.48
2019-05-05T18:28:27.638Z,102053.44
2019-05-05T18:30:54.649Z,102060.03
2019-05-05T18:33:34.071Z,102056.70
2019-05-05T18:36:01.009Z,102061.80
2019-05-05T18:38:28.087Z,102060.80
2019-05-05T18:41:06.447Z,102067.61
2019-05-05T18:43:40.113Z,102065.31
2019-05-05T18:46:07.363Z,102068.19
2019-05-05T18:48:34.952Z,102070.89
2019-05-05T18:51:03.847Z,102074.73
2019-05-05T18:53:30.835Z,102069.86
2019-05-05T18:55:57.969Z,102074.59
2019-05-05T18:58:28.968Z,102076.71
2019-05-05T19:01:13.535Z,102082.02
2019-05-05T19:03:58.923Z,102081.59
2019-05-05T19:06:44.527Z,102086.14
2019-05-05T19:09:15.287Z,102087.74
2019-05-05T19:11:43.598Z,102085.00
2019-05-05T19:14:14.210Z,102098.64
2019-05-05T19:16:41.357Z,102095.31
2019-05-05T19:19:08.336Z,102095.73
2019-05-05T19:21:38.676Z,102103.75
2019-05-05T19:24:07.142Z,102098.51
2019-05-05T19:26:34.150Z,102098.42
2019-05-05T19:29:04.391Z,102100.80
2019-05-05T19:31:32.049Z,102099.42
2019-05-05T19:33:59.998Z,102097.16
2019-05-05T19:36:27.523Z,102101.97
2019-05-05T19:38:54.924Z,102104.89
2019-05-05T19:41:23.816Z,102103.40
2019-05-05T19:43:54.921Z,102106.13
2019-05-05T19:46:27.143Z,102105.92
2019-05-05T19:49:14.759Z,102107.02
2019-05-05T19:51:44.668Z,102110.41
2019-05-05T19:54:14.201Z,102111.64
2019-05-05T19:56:40.822Z,102119.58
2019-05-05T19:59:08.248Z,102120.29
2019-05-05T20:01:37.834Z,102124.92
2019-05-05T20:04:04.988Z,102120.70
2019-05-05T20:06:32.133Z,102131.64
2019-05-05T20:08:59.231Z,102122.81
2019-05-05T20:11:29.499Z,102124.52
2019-05-05T20:14:06.637Z,102132.47
2019-05-05T20:16:34.145Z,102133.59
2019-05-05T20:19:01.303Z,102134.80
2019-05-05T20:21:28.860Z,102137.01
2019-05-05T20:23:57.825Z,102137.53
2019-05-05T20:26:25.477Z,102143.06
2019-05-05T20:28:55.321Z,102143.06
2019-05-05T20:31:21.385Z,102141.02
2019-05-05T20:33:59.161Z,102141.25
2019-05-05T20:36:26.862Z,102145.89
2019-05-05T20:39:49.150Z,102142.79
2019-05-05T20:42:17.215Z,102153.84
2019-05-05T20:44:44.224Z,102148.83
2019-05-05T20:47:11.257Z,102144.67
2019-05-05T20:49:38.350Z,102144.47
2019-05-05T20:52:05.494Z,102145.45
2019-05-05T20:54:32.541Z,102152.66
2019-05-05T20:56:59.674Z,102149.03
2019-05-05T20:59:30.691Z,102145.70
2019-05-05T21:01:57.493Z,102157.31
2019-05-05T21:05:17.592Z,102158.19
2019-05-05T21:07:45.496Z,102151.36
2019-05-05T21:10:14.332Z,102153.98
2019-05-05T21:12:42.626Z,102148.86
2019-05-05T21:15:13.013Z,102151.05
2019-05-05T21:17:59.542Z,102144.11
2019-05-05T21:20:26.680Z,102148.30
2019-05-05T21:23:05.189Z,102152.19
2019-05-05T21:25:34.825Z,102150.86
2019-05-05T21:28:03.371Z,102150.24
2019-05-05T21:30:33.695Z,102151.44
2019-05-05T21:33:01.372Z,102155.02
2019-05-05T21:35:28.718Z,102162.52
2019-05-05T21:37:55.818Z,102151.59
2019-05-05T21:40:25.052Z,102156.58
2019-05-05T21:42:54.206Z,102152.35
2019-05-05T21:45:21.045Z,102156.44
2019-05-05T21:47:48.090Z,102152.31
2019-05-05T21:50:17.919Z,102155.09
2019-05-05T21:52:49.662Z,102151.08
2019-05-05T21:55:39.247Z,102156.03
2019-05-05T21:58:25.360Z,102152.82
2019-05-05T22:01:18.451Z,102162.50
2019-05-05T22:04:05.032Z,102154.94
2019-05-05T22:06:33.663Z,102155.36
2019-05-05T22:09:03.914Z,102156.95
2019-05-05T22:11:30.721Z,102153.44
2019-05-05T22:17:29.832Z,102151.80
2019-05-05T22:20:04.668Z,102150.45
2019-05-05T22:22:36.387Z,102148.42
2019-05-05T22:25:14.066Z,102156.22
2019-05-05T22:27:40.861Z,102144.98
2019-05-05T22:30:10.439Z,102139.33
2019-05-05T22:32:37.029Z,102150.80
2019-05-05T22:35:04.584Z,102145.09
2019-05-05T22:37:31.745Z,102147.07
2019-05-05T22:39:58.836Z,102147.24
2019-05-05T22:42:25.944Z,102149.33
2019-05-05T22:44:52.903Z,102142.83
2019-05-05T22:47:20.040Z,102144.12
2019-05-05T22:49:47.162Z,102144.92
2019-05-05T22:52:14.572Z,102139.61
2019-05-05T22:54:41.612Z,102149.39
2019-05-05T22:57:50.043Z,102143.28
2019-05-05T23:00:26.565Z,102144.47
2019-05-05T23:03:33.428Z,102136.84
2019-05-05T23:06:04.457Z,102138.48
2019-05-05T23:08:34.882Z,102130.73
2019-05-05T23:11:03.895Z,102142.20
2019-05-05T23:13:30.799Z,102143.00
2019-05-05T23:16:11.402Z,102134.30
2019-05-05T23:18:38.594Z,102135.98
2019-05-05T23:21:15.817Z,102142.66
2019-05-05T23:23:51.665Z,102139.66
2019-05-05T23:26:19.795Z,102140.33
2019-05-05T23:28:46.869Z,102146.88
2019-05-05T23:31:16.038Z,102143.15
2019-05-05T23:33:43.964Z,102140.95
2019-05-05T23:36:30.642Z,102140.20
2019-05-05T23:38:57.591Z,102143.09
2019-05-05T23:41:24.749Z,102145.33
2019-05-05T23:43:54.286Z,102148.26
2019-05-05T23:46:34.792Z,102153.73
2019-05-05T23:49:04.129Z,102152.83
2019-05-05T23:51:31.066Z,102148.81
2019-05-05T23:53:58.023Z,102149.37
2019-05-05T23:56:26.838Z,102148.98
2019-05-05T23:58:54.854Z,102151.47
